Time;durP1;ratioP1;P1;durP2;ratioP2;P2;SDS_P1;SDS_P2;PMS_P1;PMS_P2;Temp;Humidity;BMP_temperature;BMP_pressure;BME280_temperature;BME280_humidity;BME280_pressure;Samples;Min_cycle;Max_cycle;Signal;HPM_P1;HPM_P2
2021/07/14 00:00:20;;;;;;;8.02;7.22;;;;;;;29.54;42.42;100979.44;144992;592;6002;-82
2021/07/14 00:02:48;;;;;;;8.90;7.93;;;;;;;29.44;42.59;100981.66;144991;648;6002;-83
2021/07/14 00:05:19;;;;;;;8.60;7.72;;;;;;;29.46;42.97;100974.44;144992;604;6002;-83
2021/07/14 00:07:47;;;;;;;7.90;7.20;;;;;;;29.51;42.42;100977.78;144992;633;6002;-82
2021/07/14 00:10:31;;;;;;;7.85;7.05;;;;;;;29.59;42.51;100975.63;144992;570;6002;-82
2021/07/14 00:24:11;;;;;;;9.02;6.93;;;;;;;29.80;42.25;100970.25;144992;569;6002;-82
2021/07/14 00:26:38;;;;;;;7.68;6.65;;;;;;;29.91;41.51;100969.72;144992;580;6002;-83
2021/07/14 00:29:11;;;;;;;7.60;6.93;;;;;;;30.03;40.84;100972.72;144992;616;6002;-83
2021/07/14 00:31:42;;;;;;;9.60;7.15;;;;;;;30.10;40.79;100969.72;144992;649;6002;-82
2021/07/14 00:34:10;;;;;;;8.85;7.18;;;;;;;30.13;41.25;100972.25;144992;575;6002;-82
2021/07/14 00:36:38;;;;;;;7.45;6.25;;;;;;;30.20;40.81;100974.56;144992;581;6002;-86
2021/07/14 00:39:07;;;;;;;7.70;6.97;;;;;;;30.26;40.96;100972.50;144992;565;6002;-82
2021/07/14 00:41:36;;;;;;;8.88;6.90;;;;;;;30.30;40.98;100969.63;144992;566;6002;-83
2021/07/14 00:44:07;;;;;;;7.50;6.68;;;;;;;30.26;40.88;100972.50;144992;581;6002;-82
2021/07/14 00:46:39;;;;;;;7.95;6.53;;;;;;;30.30;41.25;100966.94;144992;670;6002;-83
2021/07/14 00:49:07;;;;;;;8.15;6.87;;;;;;;30.41;40.69;100973.63;144991;613;6002;-83
2021/07/14 00:51:34;;;;;;;8.27;6.93;;;;;;;30.45;40.92;100965.38;144992;564;6002;-83
2021/07/14 00:54:00;;;;;;;7.43;6.60;;;;;;;30.34;39.44;100967.69;144992;645;6002;-83
2021/07/14 00:56:27;;;;;;;6.97;6.28;;;;;;;30.26;40.26;100965.38;144992;583;6002;-83
2021/07/14 00:58:56;;;;;;;8.02;6.35;;;;;;;30.18;40.94;100967.56;144992;647;6002;-82
2021/07/14 01:01:24;;;;;;;7.55;6.80;;;;;;;30.09;40.66;100971.53;144992;563;6002;-82
2021/07/14 01:04:10;;;;;;;7.40;6.70;;;;;;;30.03;40.72;100974.50;144992;610;6002;-83
2021/07/14 01:06:53;;;;;;;7.53;6.82;;;;;;;29.97;41.07;100978.34;144992;570;6002;-83
2021/07/14 01:09:48;;;;;;;8.37;7.47;;;;;;;29.91;40.76;100973.28;144992;574;6002;-83
2021/07/14 01:13:04;;;;;;;7.50;6.90;;;;;;;29.90;40.79;100971.53;144991;632;6002;-84
2021/07/14 01:15:40;;;;;;;8.32;7.53;;;;;;;29.86;40.57;100972.66;144992;582;6002;-82
2021/07/14 01:18:19;;;;;;;7.80;7.10;;;;;;;29.83;40.52;100972.78;144992;572;6002;-83
2021/07/14 01:21:03;;;;;;;8.48;7.68;;;;;;;29.78;41.03;100977.44;144992;591;6002;-83
2021/07/14 01:23:58;;;;;;;7.87;7.15;;;;;;;29.75;40.52;100974.91;144992;604;6002;-83
2021/07/14 01:27:06;;;;;;;8.48;7.72;;;;;;;29.72;40.50;100975.94;144992;675;6004;-83
2021/07/14 01:29:43;;;;;;;10.32;7.05;;;;;;;29.71;40.84;100990.22;144992;567;6004;-83
2021/07/14 01:32:12;;;;;;;9.25;7.20;;;;;;;29.61;40.24;100981.75;144992;597;6004;-83
2021/07/14 01:34:52;;;;;;;7.75;6.97;;;;;;;29.57;40.19;100988.19;144992;682;6005;-84
2021/07/14 01:37:22;;;;;;;7.65;6.95;;;;;;;29.57;40.78;100985.50;144992;610;6004;-83
2021/07/14 01:39:51;;;;;;;7.62;6.93;;;;;;;29.61;40.93;100992.47;144992;624;6004;-84
2021/07/14 01:42:22;;;;;;;7.87;7.15;;;;;;;29.63;40.84;100993.25;144992;562;6005;-82
2021/07/14 01:44:51;;;;;;;7.18;6.45;;;;;;;29.64;40.42;100989.66;144992;620;6004;-82
2021/07/14 01:47:19;;;;;;;8.40;7.57;;;;;;;29.61;40.51;100989.78;144992;571;6004;-83
2021/07/14 01:49:48;;;;;;;13.13;7.55;;;;;;;29.61;40.80;100989.78;144992;591;6005;-82
2021/07/14 01:52:18;;;;;;;8.35;7.05;;;;;;;29.62;40.45;100990.66;144992;596;6004;-83
2021/07/14 01:54:45;;;;;;;7.20;6.47;;;;;;;29.61;40.60;100988.94;144992;569;6004;-84
2021/07/14 01:57:13;;;;;;;7.87;7.07;;;;;;;29.61;40.79;100989.78;144991;581;6000;-84
2021/07/14 01:59:41;;;;;;;8.10;6.75;;;;;;;29.62;40.63;100996.87;144992;570;6002;-83
2021/07/14 02:02:10;;;;;;;7.87;7.07;;;;;;;29.62;40.80;100990.66;144992;621;6002;-83
2021/07/14 02:04:40;;;;;;;7.97;7.18;;;;;;;29.60;40.43;100993.37;144992;588;6002;-84
2021/07/14 02:07:11;;;;;;;7.82;7.07;;;;;;;29.58;40.18;100989.06;144992;622;6002;-83
2021/07/14 02:09:39;;;;;;;7.78;6.97;;;;;;;29.59;40.34;100998.81;144992;611;6002;-82
2021/07/14 02:12:12;;;;;;;8.52;6.97;;;;;;;29.56;40.66;100991.81;144992;557;6002;-82
2021/07/14 02:14:47;;;;;;;11.88;7.28;;;;;;;29.55;40.67;101000.75;144992;610;6002;-83
2021/07/14 02:17:20;;;;;;;9.32;7.22;;;;;;;29.53;40.17;100991.09;144992;597;6002;-83
2021/07/14 02:20:09;;;;;;;9.55;7.43;;;;;;;29.52;40.18;100992.87;144992;607;6002;-83
2021/07/14 02:22:36;;;;;;;7.97;7.28;;;;;;;29.51;40.04;100988.47;144992;605;6004;-82
2021/07/14 02:25:04;;;;;;;7.78;6.97;;;;;;;29.51;40.09;100987.59;144992;571;6004;-83
2021/07/14 02:27:30;;;;;;;7.68;6.93;;;;;;;29.48;40.22;100986.81;144992;612;6004;-83
2021/07/14 02:29:57;;;;;;;10.55;7.87;;;;;;;29.47;39.81;100990.41;144992;591;6004;-83
2021/07/14 02:32:24;;;;;;;10.30;7.43;;;;;;;29.47;40.16;100997.56;144992;575;6004;-81
2021/07/14 02:34:55;;;;;;;8.30;7.50;;;;;;;29.44;40.08;100992.34;144992;623;6004;-82
2021/07/14 02:37:38;;;;;;;8.48;7.68;;;;;;;29.41;40.33;100996.03;144992;575;6004;-83
2021/07/14 02:40:06;;;;;;;8.07;7.30;;;;;;;29.42;39.97;100994.25;144992;567;6004;-83
2021/07/14 02:42:35;;;;;;;8.15;7.37;;;;;;;29.41;40.50;100992.50;144992;590;6013;-82
2021/07/14 02:45:05;;;;;;;9.95;6.97;;;;;;;29.42;40.27;101003.13;144992;594;6004;-82
2021/07/14 02:47:38;;;;;;;9.85;7.03;;;;;;;29.42;40.57;101002.25;144992;637;6004;-82
2021/07/14 02:50:19;;;;;;;8.95;8.05;;;;;;;29.36;40.13;101010.56;144992;574;6004;-83
2021/07/14 02:52:50;;;;;;;8.82;8.02;;;;;;;29.29;40.86;101007.28;144992;565;6004;-83
2021/07/14 02:55:30;;;;;;;9.20;7.72;;;;;;;29.27;40.23;101007.34;144992;566;6004;-83
2021/07/14 02:57:59;;;;;;;11.27;7.62;;;;;;;29.25;40.58;101009.19;144992;572;6004;-82
2021/07/14 03:00:29;;;;;;;8.90;7.68;;;;;;;29.25;40.44;101003.00;144992;661;6004;-82
2021/07/14 03:02:59;;;;;;;11.90;8.48;;;;;;;29.28;40.27;101010.88;144992;588;6004;-82
2021/07/14 03:05:29;;;;;;;13.57;8.32;;;;;;;29.29;40.55;101013.50;144992;612;6004;-82
2021/07/14 03:07:59;;;;;;;9.30;8.40;;;;;;;29.31;40.33;101018.78;144992;591;6004;-82
2021/07/14 03:10:27;;;;;;;11.73;8.27;;;;;;;29.30;40.34;101012.56;144992;597;6004;-82
2021/07/14 03:12:59;;;;;;;12.55;8.50;;;;;;;29.31;40.08;101018.78;144992;674;6004;-82
2021/07/14 03:15:27;;;;;;;14.10;7.93;;;;;;;29.31;39.82;101016.97;144992;655;6004;-83
2021/07/14 03:17:55;;;;;;;8.60;7.78;;;;;;;29.30;39.75;101017.91;144992;583;6004;-82
2021/07/14 03:20:22;;;;;;;14.40;8.15;;;;;;;29.31;40.41;101021.44;144991;650;6000;-83
2021/07/14 03:22:53;;;;;;;11.52;8.90;;;;;;;29.31;40.32;101024.97;144992;588;6002;-82
2021/07/14 03:25:21;;;;;;;9.02;7.72;;;;;;;29.32;40.09;101025.88;144992;635;6002;-83
2021/07/14 03:27:50;;;;;;;11.73;7.80;;;;;;;29.32;39.93;101025.88;144992;608;6002;-83
2021/07/14 03:30:19;;;;;;;9.90;8.00;;;;;;;29.33;40.44;101026.72;144992;692;6002;-83
2021/07/14 03:32:46;;;;;;;10.05;8.30;;;;;;;29.33;39.89;101026.72;144993;577;6002;-82
2021/07/14 03:35:14;;;;;;;9.77;7.70;;;;;;;29.33;40.12;101032.94;144993;587;6002;-83
2021/07/14 03:37:43;;;;;;;12.35;8.57;;;;;;;29.34;40.27;101036.50;144993;563;6002;-83
2021/07/14 03:40:10;;;;;;;11.88;7.72;;;;;;;29.33;40.00;101032.06;144993;696;6002;-84
2021/07/14 03:42:39;;;;;;;11.43;8.40;;;;;;;29.33;40.32;101029.41;144993;619;6002;-84
2021/07/14 03:45:10;;;;;;;10.13;8.25;;;;;;;29.34;40.30;101041.84;144993;645;6002;-83
2021/07/14 03:47:39;;;;;;;8.32;7.53;;;;;;;29.35;40.13;101044.44;144993;637;6002;-82
2021/07/14 03:50:06;;;;;;;14.98;8.18;;;;;;;29.38;40.42;101048.78;144993;624;6002;-82
2021/07/14 03:52:34;;;;;;;12.40;7.80;;;;;;;29.38;39.98;101051.44;144993;661;6002;-82
2021/07/14 03:55:01;;;;;;;12.35;8.27;;;;;;;29.35;39.93;101044.44;144993;573;6002;-83
2021/07/14 03:57:29;;;;;;;13.25;7.93;;;;;;;29.34;40.37;101050.72;144993;586;6002;-83
2021/07/14 03:59:57;;;;;;;12.65;8.23;;;;;;;29.34;40.17;101052.53;144993;712;6002;-82
2021/07/14 04:02:25;;;;;;;12.80;8.48;;;;;;;29.31;40.20;101050.84;144992;688;6002;-83
2021/07/14 04:04:52;;;;;;;14.00;8.32;;;;;;;29.31;40.45;101058.88;144992;715;6002;-82
2021/07/14 04:07:27;;;;;;;15.60;8.63;;;;;;;29.29;40.47;101052.72;144992;708;6002;-83
2021/07/14 04:09:54;;;;;;;13.25;9.02;;;;;;;29.29;40.03;101058.09;144992;614;6002;-84
2021/07/14 04:12:20;;;;;;;13.00;8.38;;;;;;;29.29;40.05;101058.94;144992;594;6002;-81
2021/07/14 04:14:47;;;;;;;12.15;8.50;;;;;;;29.29;40.55;101056.28;144993;601;6002;-82
2021/07/14 04:17:13;;;;;;;14.57;8.95;;;;;;;29.25;39.85;101062.66;144993;655;6002;-83
2021/07/14 04:19:40;;;;;;;18.58;9.88;;;;;;;29.23;40.07;101058.34;144993;612;6002;-82
2021/07/14 04:22:08;;;;;;;15.80;9.55;;;;;;;29.24;40.21;101068.97;144993;717;6002;-82
2021/07/14 04:24:36;;;;;;;17.60;9.52;;;;;;;29.29;40.43;101072.31;144993;622;6002;-84
2021/07/14 04:27:04;;;;;;;20.50;9.90;;;;;;;29.31;40.57;101078.44;144992;587;6002;-83
2021/07/14 04:29:31;;;;;;;16.65;9.85;;;;;;;29.35;40.60;101075.66;144993;565;6002;-83
2021/07/14 04:31:58;;;;;;;15.38;9.15;;;;;;;29.40;40.27;101074.53;144993;725;6002;-84
2021/07/14 04:34:24;;;;;;;18.20;9.23;;;;;;;29.46;39.98;101076.94;144993;596;6002;-83
2021/07/14 04:36:51;;;;;;;14.85;8.95;;;;;;;29.50;39.85;101083.00;144993;733;6002;-83
2021/07/14 04:39:18;;;;;;;14.65;9.23;;;;;;;29.53;39.85;101090.91;144993;617;6002;-84
2021/07/14 04:41:44;;;;;;;12.93;8.60;;;;;;;29.55;39.82;101091.69;144993;674;6002;-82
2021/07/14 04:44:12;;;;;;;14.02;8.85;;;;;;;29.59;40.11;101092.41;144992;593;6002;-83
2021/07/14 04:46:39;;;;;;;13.23;9.23;;;;;;;29.62;40.31;101092.28;144993;598;6002;-83
2021/07/14 04:49:05;;;;;;;11.18;8.60;;;;;;;29.62;39.85;101098.53;144993;573;6002;-85
2021/07/14 04:51:32;;;;;;;13.82;8.45;;;;;;;29.63;40.32;101099.38;144993;569;6002;-83
2021/07/14 04:53:58;;;;;;;14.93;8.88;;;;;;;29.66;39.83;101104.59;144993;596;6002;-85
2021/07/14 04:56:25;;;;;;;13.65;9.88;;;;;;;29.71;40.28;101113.28;144993;633;6002;-84
2021/07/14 04:58:52;;;;;;;18.37;9.90;;;;;;;29.76;39.82;101110.41;144993;618;6002;-84
2021/07/14 05:01:18;;;;;;;17.15;9.90;;;;;;;29.66;40.17;101108.13;144993;574;6002;-84
2021/07/14 05:03:47;;;;;;;15.98;10.60;;;;;;;29.65;39.98;101119.78;144993;580;6003;-84
2021/07/14 05:06:18;;;;;;;25.23;10.20;;;;;;;29.70;40.00;101118.69;144993;604;6002;-82
2021/07/14 05:08:45;;;;;;;16.58;10.18;;;;;;;29.75;40.14;101116.69;144993;590;6002;-84
2021/07/14 05:11:15;;;;;;;17.85;10.70;;;;;;;29.81;39.90;101114.66;144994;667;5002;-82
2021/07/14 05:13:42;;;;;;;16.27;10.68;;;;;;;29.89;40.11;101119.69;144994;577;5002;-82
2021/07/14 05:16:08;;;;;;;19.17;10.70;;;;;;;29.95;40.35;101127.41;144993;598;5002;-83
2021/07/14 05:18:38;;;;;;;20.98;10.70;;;;;;;30.00;39.89;101119.16;144994;581;5002;-83
2021/07/14 05:21:05;;;;;;;18.90;11.55;;;;;;;29.99;39.01;101118.31;144994;579;5002;-83
2021/07/14 05:23:32;;;;;;;20.85;11.77;;;;;;;29.99;40.34;101122.81;144994;600;5002;-83
2021/07/14 05:26:00;;;;;;;15.27;10.13;;;;;;;30.03;40.17;101121.72;144994;596;5002;-83
2021/07/14 05:28:26;;;;;;;17.48;11.35;;;;;;;30.12;40.34;101123.09;144994;571;5002;-83
2021/07/14 05:30:53;;;;;;;21.67;11.48;;;;;;;30.20;39.90;101124.47;144994;625;5002;-83
2021/07/14 05:33:19;;;;;;;17.48;11.15;;;;;;;30.29;40.09;101127.66;144994;583;5002;-84
2021/07/14 05:35:47;;;;;;;15.20;10.38;;;;;;;30.35;39.95;101133.62;144994;580;5002;-83
2021/07/14 05:38:19;;;;;;;14.13;10.55;;;;;;;30.42;39.90;101138.69;144994;606;5002;-85
2021/07/14 05:40:49;;;;;;;14.77;9.77;;;;;;;30.49;39.84;101134.81;144994;563;5002;-82
2021/07/14 05:43:16;;;;;;;14.07;10.00;;;;;;;30.53;39.85;101128.37;144994;655;5002;-84
2021/07/14 05:45:43;;;;;;;17.27;9.45;;;;;;;30.55;39.92;101131.84;144994;569;5002;-83
2021/07/14 05:48:09;;;;;;;19.30;11.15;;;;;;;30.55;39.20;101140.75;144994;580;5002;-84
2021/07/14 05:50:37;;;;;;;17.27;10.90;;;;;;;30.53;37.99;101136.41;144994;582;5002;-84
2021/07/14 05:53:04;;;;;;;18.45;10.98;;;;;;;30.58;39.42;101145.09;144994;569;5002;-84
2021/07/14 05:55:31;;;;;;;20.83;11.20;;;;;;;30.62;38.33;101145.81;144994;614;5002;-83
2021/07/14 05:57:58;;;;;;;19.48;11.12;;;;;;;30.64;38.68;101147.47;144994;575;5002;-84
2021/07/14 06:00:26;;;;;;;25.20;10.93;;;;;;;30.66;38.72;101145.59;144994;582;5002;-82
2021/07/14 06:02:52;;;;;;;16.55;11.35;;;;;;;30.68;37.19;101149.06;144994;570;5002;-84
2021/07/14 06:05:19;;;;;;;16.33;10.88;;;;;;;30.63;38.30;101153.78;144994;645;5002;-83
2021/07/14 06:07:45;;;;;;;13.68;10.85;;;;;;;30.53;37.92;101145.31;144994;591;5002;-83
2021/07/14 06:10:12;;;;;;;18.58;10.90;;;;;;;30.59;39.36;101141.44;144994;575;5002;-83
2021/07/14 06:12:38;;;;;;;30.12;12.45;;;;;;;30.65;39.02;101143.84;144994;625;5002;-83
2021/07/14 06:15:06;;;;;;;17.75;11.90;;;;;;;30.71;39.43;101148.06;144994;563;5002;-85
2021/07/14 06:17:33;;;;;;;22.35;11.70;;;;;;;30.77;39.36;101149.56;144994;581;5002;-85
2021/07/14 06:19:59;;;;;;;17.52;10.10;;;;;;;30.81;39.10;101143.97;144994;598;5002;-83
2021/07/14 06:22:27;;;;;;;17.42;9.70;;;;;;;30.87;38.85;101146.34;144994;595;5002;-84
2021/07/14 06:24:54;;;;;;;17.83;11.27;;;;;;;30.95;39.84;101143.31;144994;566;5002;-84
2021/07/14 06:27:20;;;;;;;15.13;11.07;;;;;;;31.01;39.43;101137.69;144994;600;5002;-85
2021/07/14 06:29:47;;;;;;;10.55;8.23;;;;;;;31.05;39.57;101139.28;144993;585;5002;-82
2021/07/14 06:32:13;;;;;;;11.07;7.20;;;;;;;31.16;39.24;101143.22;144994;586;5002;-85
2021/07/14 06:34:39;;;;;;;9.35;7.85;;;;;;;32.52;37.35;101140.56;144994;564;5012;-86
2021/07/14 06:37:06;;;;;;;7.75;6.57;;;;;;;34.23;34.55;101137.72;144994;591;5002;-85
2021/07/14 06:39:33;;;;;;;8.73;7.50;;;;;;;35.67;32.77;101141.78;144994;686;5002;-85
2021/07/14 06:41:59;;;;;;;8.77;6.93;;;;;;;36.75;31.09;101135.00;144994;656;5002;-86
2021/07/14 06:44:26;;;;;;;9.23;7.37;;;;;;;37.36;30.65;101131.34;144994;588;5002;-84
2021/07/14 06:46:53;;;;;;;12.45;7.90;;;;;;;36.96;31.58;101131.66;144994;589;5002;-86
2021/07/14 06:49:19;;;;;;;14.10;9.40;;;;;;;36.43;32.05;101140.91;144994;598;5002;-84
2021/07/14 06:51:45;;;;;;;10.90;8.40;;;;;;;35.87;32.88;101138.56;144994;576;5002;-81
2021/07/14 06:54:12;;;;;;;8.52;7.10;;;;;;;35.13;32.38;101138.19;144994;623;5002;-85
2021/07/14 06:56:38;;;;;;;8.02;7.22;;;;;;;34.53;34.20;101139.41;144994;569;5002;-85
2021/07/14 06:59:05;;;;;;;14.80;7.78;;;;;;;34.09;35.60;101126.91;144994;573;5002;-86
2021/07/14 07:01:31;;;;;;;15.20;9.93;;;;;;;33.64;36.28;101121.56;144994;569;5002;-83
2021/07/14 07:03:58;;;;;;;11.15;9.00;;;;;;;33.31;36.88;101129.84;144994;621;5002;-85
2021/07/14 07:06:25;;;;;;;10.20;8.13;;;;;;;32.93;37.12;101122.19;144994;571;5002;-84
2021/07/14 07:08:52;;;;;;;12.82;8.93;;;;;;;32.59;37.49;101132.16;144994;579;5002;-85
2021/07/14 07:11:18;;;;;;;16.98;7.80;;;;;;;32.34;37.59;101125.44;144994;621;5002;-83
2021/07/14 07:13:45;;;;;;;10.70;7.72;;;;;;;32.14;37.23;101126.56;144994;610;5002;-85
2021/07/14 07:16:11;;;;;;;12.85;8.27;;;;;;;32.11;37.72;101124.03;144994;575;5002;-85
2021/07/14 07:18:38;;;;;;;11.12;8.40;;;;;;;31.92;39.14;101125.00;144994;590;5002;-85
2021/07/14 07:21:07;;;;;;;13.93;12.05;;;;;;;32.03;39.01;101128.94;144994;680;5002;-83
2021/07/14 07:23:36;;;;;;;17.80;11.40;;;;;;;31.77;41.35;101133.84;144994;583;5002;-84
2021/07/14 07:26:04;;;;;;;17.65;12.23;;;;;;;31.73;40.73;101117.06;144994;643;5002;-85
2021/07/14 07:28:35;;;;;;;15.18;12.73;;;;;;;31.52;43.28;101126.22;144994;720;5002;-84
2021/07/14 07:31:04;;;;;;;19.70;12.98;;;;;;;31.52;41.72;101127.06;144994;594;5002;-84
2021/07/14 07:33:31;;;;;;;20.35;12.30;;;;;;;31.49;42.14;101118.31;144994;592;5002;-85
2021/07/14 07:35:57;;;;;;;15.27;11.95;;;;;;;31.51;42.17;101128.00;144993;598;5002;-85
2021/07/14 07:38:25;;;;;;;16.23;11.95;;;;;;;31.39;43.51;101125.97;144994;627;5002;-84
2021/07/14 07:40:53;;;;;;;16.20;12.10;;;;;;;31.25;44.37;101121.31;144994;683;5002;-85
2021/07/14 07:43:21;;;;;;;12.63;11.25;;;;;;;31.10;45.37;101125.63;144994;571;5002;-86
2021/07/14 07:45:48;;;;;;;15.35;11.07;;;;;;;30.95;45.91;101124.53;144994;591;5002;-85
2021/07/14 07:48:14;;;;;;;12.00;10.80;;;;;;;30.84;46.51;101121.53;144994;576;5002;-85
2021/07/14 07:50:41;;;;;;;13.82;10.93;;;;;;;30.93;46.96;101123.75;144994;630;5002;-85
2021/07/14 07:53:07;;;;;;;13.90;11.40;;;;;;;30.96;46.85;101128.09;144994;628;5002;-84
2021/07/14 07:55:34;;;;;;;14.63;10.82;;;;;;;30.93;46.51;101121.09;144994;625;5002;-84
2021/07/14 07:58:00;;;;;;;12.63;9.70;;;;;;;31.25;45.12;101113.28;144994;606;5002;-85
2021/07/14 08:00:27;;;;;;;9.82;8.75;;;;;;;31.23;44.14;101113.34;144994;695;5002;-84
2021/07/14 08:02:53;;;;;;;9.88;8.98;;;;;;;31.32;43.55;101121.87;144994;581;5002;-86
2021/07/14 08:05:20;;;;;;;9.88;8.18;;;;;;;31.27;43.88;101117.59;144994;648;5002;-85
2021/07/14 08:07:46;;;;;;;10.50;9.00;;;;;;;31.29;44.35;101121.09;144994;569;5002;-86
2021/07/14 08:10:13;;;;;;;11.55;8.70;;;;;;;31.27;43.00;101114.91;144994;715;5002;-86
2021/07/14 08:12:41;;;;;;;14.57;8.77;;;;;;;31.26;42.90;101117.66;144994;590;5002;-85
2021/07/14 08:15:09;;;;;;;11.77;8.25;;;;;;;31.33;42.26;101124.47;144994;583;5002;-83
2021/07/14 08:17:35;;;;;;;8.40;7.60;;;;;;;31.41;40.95;101108.84;144994;691;5002;-86
2021/07/14 08:20:03;;;;;;;10.40;7.68;;;;;;;31.55;42.11;101113.53;144994;569;5002;-86
2021/07/14 08:22:29;;;;;;;11.65;7.40;;;;;;;31.67;38.72;101114.69;144993;640;5002;-85
2021/07/14 08:24:56;;;;;;;7.97;7.00;;;;;;;31.91;38.63;101108.97;144994;695;5002;-86
2021/07/14 08:27:24;;;;;;;10.45;7.18;;;;;;;32.04;37.23;101115.44;144994;605;5002;-86
2021/07/14 08:29:52;;;;;;;8.07;7.22;;;;;;;32.00;37.42;101109.34;144994;577;5002;-84
2021/07/14 08:32:18;;;;;;;6.97;6.37;;;;;;;31.94;37.74;101115.03;144994;726;5002;-85
2021/07/14 08:34:45;;;;;;;12.68;6.40;;;;;;;32.05;36.26;101105.53;144994;635;5002;-86
2021/07/14 08:37:11;;;;;;;6.75;6.05;;;;;;;32.14;35.46;101100.56;144994;565;5002;-85
2021/07/14 08:39:38;;;;;;;10.70;6.05;;;;;;;32.04;35.58;101112.75;144993;655;5002;-86
2021/07/14 08:42:05;;;;;;;8.27;6.20;;;;;;;32.01;35.21;101119.13;144994;588;5002;-84
2021/07/14 08:44:34;;;;;;;6.72;6.00;;;;;;;32.09;35.41;101112.53;144994;692;5002;-84
2021/07/14 08:47:01;;;;;;;7.28;5.68;;;;;;;32.12;34.65;101107.84;144994;677;5002;-85
2021/07/14 08:49:29;;;;;;;8.95;6.25;;;;;;;32.11;34.92;101107.94;144994;710;5002;-87
2021/07/14 08:51:56;;;;;;;6.45;5.85;;;;;;;32.02;33.70;101103.88;144994;645;5002;-87
2021/07/14 08:54:23;;;;;;;12.73;6.15;;;;;;;32.18;35.00;101107.53;144994;704;5002;-84
2021/07/14 08:56:50;;;;;;;11.25;6.20;;;;;;;32.07;35.16;101109.91;144994;658;5002;-86
2021/07/14 08:59:18;;;;;;;10.35;6.97;;;;;;;32.07;36.37;101100.94;144994;607;5002;-84
2021/07/14 09:01:46;;;;;;;12.30;6.68;;;;;;;32.13;36.81;101108.72;144994;668;5002;-85
2021/07/14 09:04:12;;;;;;;15.82;6.60;;;;;;;32.19;36.02;101105.69;144994;571;5002;-87
2021/07/14 09:06:39;;;;;;;12.80;6.32;;;;;;;32.22;35.61;101107.34;144994;569;5002;-84
2021/07/14 09:09:06;;;;;;;7.55;5.55;;;;;;;32.17;35.53;101108.47;144994;685;5003;-85
2021/07/14 09:11:59;;;;;;;6.10;5.50;;;;;;;32.36;35.32;101116.38;144994;564;5002;-86
2021/07/14 09:14:28;;;;;;;10.50;6.72;;;;;;;32.44;35.59;101107.03;144994;616;5002;-85
2021/07/14 09:16:55;;;;;;;8.38;5.87;;;;;;;32.32;35.85;101109.41;144994;727;5002;-86
2021/07/14 09:19:27;;;;;;;6.50;5.90;;;;;;;32.25;36.00;101107.19;144994;596;5002;-86
2021/07/14 09:21:54;;;;;;;9.52;6.57;;;;;;;32.29;35.84;101108.72;144994;652;5002;-84
2021/07/14 09:24:34;;;;;;;8.48;6.35;;;;;;;32.30;36.69;101102.41;144994;600;5002;-85
2021/07/14 09:27:03;;;;;;;7.20;6.10;;;;;;;32.21;36.73;101103.78;144994;673;5002;-86
2021/07/14 09:29:31;;;;;;;8.98;5.93;;;;;;;32.27;36.52;101106.12;144994;599;5002;-80
2021/07/14 09:31:57;;;;;;;7.20;6.35;;;;;;;32.34;36.85;101106.66;144994;565;5002;-84
2021/07/14 09:34:31;;;;;;;7.37;6.05;;;;;;;32.31;36.77;101090.69;144994;614;5002;-85
2021/07/14 09:37:05;;;;;;;8.07;5.45;;;;;;;32.37;36.35;101095.72;144994;618;5002;-86
2021/07/14 09:39:38;;;;;;;6.25;5.55;;;;;;;32.26;36.82;101112.47;144994;604;5002;-85
2021/07/14 09:42:10;;;;;;;8.35;6.28;;;;;;;32.17;37.47;101100.41;144994;620;4566;-87
2021/07/14 09:44:47;;;;;;;10.15;7.07;;;;;;;32.18;39.02;101102.16;144994;582;4572;-87
2021/07/14 09:47:20;;;;;;;8.45;6.10;;;;;;;32.19;38.94;101095.81;144993;572;6002;-85
2021/07/14 09:49:50;;;;;;;8.55;6.15;;;;;;;32.10;39.07;101106.19;144991;624;6002;-84
2021/07/14 09:52:23;;;;;;;9.23;6.03;;;;;;;32.21;38.11;101094.87;144992;569;6002;-85
2021/07/14 09:54:50;;;;;;;6.70;6.05;;;;;;;32.20;38.17;101091.31;144992;609;6003;-84
2021/07/14 09:57:18;;;;;;;9.57;5.95;;;;;;;32.10;37.78;101100.81;144992;646;6002;-85
2021/07/14 09:59:45;;;;;;;7.05;6.40;;;;;;;32.15;38.88;101105.00;144992;681;6002;-84
2021/07/14 10:02:17;;;;;;;8.38;5.95;;;;;;;32.13;39.94;101100.66;144992;666;6002;-86
2021/07/14 10:04:46;;;;;;;7.85;6.50;;;;;;;32.11;41.06;101107.94;144992;603;6002;-85
2021/07/14 10:07:20;;;;;;;6.65;6.00;;;;;;;32.13;40.36;101098.81;144991;624;6002;-84
2021/07/14 10:09:47;;;;;;;7.95;6.28;;;;;;;32.16;39.60;101095.13;144992;704;6002;-84
2021/07/14 10:12:31;;;;;;;13.05;6.50;;;;;;;32.26;38.43;101098.16;144992;617;6002;-83
2021/07/14 10:15:18;;;;;;;10.13;6.70;;;;;;;32.28;38.22;101096.25;144992;616;6002;-85
2021/07/14 10:17:49;;;;;;;8.95;6.70;;;;;;;32.24;39.05;101100.06;144992;569;6002;-86
2021/07/14 10:20:44;;;;;;;6.72;6.05;;;;;;;32.36;38.86;101100.25;144992;623;6002;-84
2021/07/14 10:23:15;;;;;;;8.00;6.20;;;;;;;32.39;39.39;101098.34;144992;625;6004;-85
2021/07/14 10:25:43;;;;;;;10.10;6.43;;;;;;;32.31;39.81;101098.75;144992;703;6004;-84
2021/07/14 10:28:12;;;;;;;13.10;6.47;;;;;;;32.37;41.05;101101.09;144992;586;6004;-83
2021/07/14 10:30:41;;;;;;;7.57;6.57;;;;;;;32.29;41.27;101090.78;144992;629;6004;-86
2021/07/14 10:33:11;;;;;;;9.88;6.57;;;;;;;32.18;43.11;101093.19;144992;612;6004;-85
2021/07/14 10:35:43;;;;;;;12.10;6.95;;;;;;;32.16;43.31;101098.66;144992;709;6004;-84
2021/07/14 10:38:25;;;;;;;8.52;5.93;;;;;;;32.15;43.89;101098.75;144992;642;6004;-87
2021/07/14 10:40:55;;;;;;;7.95;6.05;;;;;;;32.08;44.77;101091.97;144992;647;6004;-82
2021/07/14 10:43:27;;;;;;;7.22;6.32;;;;;;;32.04;45.63;101087.69;144992;599;6004;-85
2021/07/14 10:45:54;;;;;;;7.65;6.03;;;;;;;32.04;45.00;101087.69;144992;661;6004;-84
2021/07/14 10:48:23;;;;;;;6.55;5.87;;;;;;;31.99;45.92;101087.94;144992;608;6004;-83
2021/07/14 10:50:50;;;;;;;7.55;6.00;;;;;;;31.89;46.50;101089.41;144992;587;6004;-85
2021/07/14 10:53:17;;;;;;;7.45;6.60;;;;;;;31.83;46.82;101088.78;144992;577;6004;-84
2021/07/14 10:55:46;;;;;;;7.57;6.82;;;;;;;31.87;45.55;101080.56;144992;653;6004;-85
2021/07/14 10:58:18;;;;;;;8.02;6.87;;;;;;;31.83;45.63;101085.22;144992;690;6004;-86
2021/07/14 11:00:47;;;;;;;7.32;6.62;;;;;;;31.73;46.27;101079.47;144992;599;6004;-85
2021/07/14 11:03:42;;;;;;;7.82;6.95;;;;;;;31.78;46.98;101080.09;144992;568;6004;-85
2021/07/14 11:06:11;;;;;;;9.45;7.00;;;;;;;31.58;46.77;101072.28;144992;580;6002;-87
2021/07/14 11:08:47;;;;;;;7.80;7.10;;;;;;;31.75;46.79;101072.25;144992;569;6002;-85
2021/07/14 11:11:23;;;;;;;7.57;6.87;;;;;;;31.94;46.77;101073.91;144992;721;6002;-86
2021/07/14 11:14:09;;;;;;;9.02;7.05;;;;;;;31.96;46.69;101070.19;144992;631;6004;-84
2021/07/14 11:16:39;;;;;;;9.00;6.78;;;;;;;32.01;46.86;101083.38;144992;568;6004;-85
2021/07/14 11:19:19;;;;;;;11.23;7.12;;;;;;;31.93;47.03;101072.19;144992;571;6004;-84
2021/07/14 11:21:54;;;;;;;11.48;7.60;;;;;;;31.92;47.67;101075.81;144992;724;6004;-86
2021/07/14 11:24:59;;;;;;;7.57;6.87;;;;;;;31.94;46.61;101079.28;144992;595;6004;-84
2021/07/14 11:27:44;;;;;;;8.30;6.73;;;;;;;31.97;47.40;101071.06;144992;716;6002;-84
2021/07/14 11:30:23;;;;;;;10.95;7.10;;;;;;;31.91;47.63;101066.03;144992;675;6004;-85
2021/07/14 11:32:58;;;;;;;11.07;8.27;;;;;;;31.94;47.59;101065.84;144992;645;6002;-84
2021/07/14 11:35:46;;;;;;;8.20;7.37;;;;;;;31.93;48.40;101065.00;144992;561;6004;-85
2021/07/14 11:38:19;;;;;;;8.88;7.28;;;;;;;32.01;48.53;101057.37;144992;645;6004;-86
2021/07/14 11:40:48;;;;;;;8.00;6.43;;;;;;;32.06;47.78;101059.81;144992;654;6004;-84
2021/07/14 11:43:19;;;;;;;8.48;6.40;;;;;;;32.19;47.62;101055.53;144992;702;6004;-84
2021/07/14 11:45:50;;;;;;;9.77;5.93;;;;;;;32.23;47.29;101045.50;144992;634;6004;-85
2021/07/14 11:48:39;;;;;;;7.10;6.18;;;;;;;32.36;47.83;101040.28;144991;699;6000;-83
2021/07/14 11:51:09;;;;;;;8.18;6.25;;;;;;;32.48;49.07;101038.72;144992;638;6002;-87